YMHB Airport Information

Runway Information
Runway 12 Length 7385 ft width 148 ft
Elevation 12 ft Threshold 0 ft Heading 135
Runway 30 Length 7385 ft Width 148 ft
Elevation 13 ft Threshold 0 ft Heading 315
Airport Frequencies
Type ATIS Name ATIS Frequency 112.7 MHZ
Type CTAF Name CTAF Frequency 118.1 MHZ
Type FSS Name MELBOURNE Frequency 125.55 MHZ
Type TWR Name TWR Frequency 118.1 MHZ
Airport Navaids
Type VOR-DME Name Hobart Frequency 112700 KHZ
Type NDB Name Hobart Frequency 362 KHZ
Type NDB Name Tea Tree Frequency 374 KHZ
Airport Weather Information & NOTAM
ADDS - METARS form results

(0921 UTC 17 August 2018)
 
METAR text: YMHB 170900Z 36011KT 9999 FEW045 BKN056 BKN240 12/05 Q1000 RF00.0/000.0
Conditions at: YMHB (HOBART/TASMANIA , AU) observed 0900 UTC 17 August 2018
Temperature: 12.0°C (54°F)
Dewpoint: 5.0°C (41°F) [RH = 62%]
Pressure (altimeter): 29.53 inches Hg (1000.0 mb)
Winds: from the N (360 degrees) at 13 MPH (11 knots; 5.7 m/s)
Visibility: 6 or more miles (10+ km)
Ceiling: 5600 feet AGL
Clouds: few clouds at 4500 feet AGL
broken clouds at 5600 feet AGL
broken clouds at 24000 feet AGL
Weather: no significant weather observed at this time

METAR text: YMHB 170830Z 36011KT 9999 FEW046 SCT058 BKN240 13/04 Q1000 RF00.0/000.0
Conditions at: YMHB (HOBART/TASMANIA , AU) observed 0830 UTC 17 August 2018
Temperature: 13.0°C (55°F)
Dewpoint: 4.0°C (39°F) [RH = 54%]
Pressure (altimeter): 29.53 inches Hg (1000.0 mb)
Winds: from the N (360 degrees) at 13 MPH (11 knots; 5.7 m/s)
Visibility: 6 or more miles (10+ km)
Ceiling: 24000 feet AGL
Clouds: few clouds at 4600 feet AGL
scattered clouds at 5800 feet AGL
broken clouds at 24000 feet AGL
Weather: no significant weather observed at this time